sensor_id;sensor_type;location;lat;lon;timestamp;P1;durP1;ratioP1;P2;durP2;ratioP2
28427;SDS011;15662;49.128;8.520;2022-07-30T00:02:19;1.42;;;1.30;;
28427;SDS011;15662;49.128;8.520;2022-07-30T00:04:47;1.60;;;1.50;;
28427;SDS011;15662;49.128;8.520;2022-07-30T00:07:15;1.60;;;1.50;;
28427;SDS011;15662;49.128;8.520;2022-07-30T00:09:43;2.38;;;1.70;;
28427;SDS011;15662;49.128;8.520;2022-07-30T00:12:11;1.83;;;1.60;;
28427;SDS011;15662;49.128;8.520;2022-07-30T00:14:39;1.63;;;1.55;;
28427;SDS011;15662;49.128;8.520;2022-07-30T00:17:07;2.30;;;2.00;;
28427;SDS011;15662;49.128;8.520;2022-07-30T00:19:35;2.17;;;1.98;;
28427;SDS011;15662;49.128;8.520;2022-07-30T00:22:03;1.70;;;1.60;;
28427;SDS011;15662;49.128;8.520;2022-07-30T00:24:31;1.50;;;1.45;;
28427;SDS011;15662;49.128;8.520;2022-07-30T00:26:59;3.00;;;1.45;;
28427;SDS011;15662;49.128;8.520;2022-07-30T00:29:27;2.05;;;1.85;;
28427;SDS011;15662;49.128;8.520;2022-07-30T00:31:56;2.53;;;1.92;;
28427;SDS011;15662;49.128;8.520;2022-07-30T00:34:23;1.80;;;1.70;;
28427;SDS011;15662;49.128;8.520;2022-07-30T00:36:52;2.00;;;1.80;;
28427;SDS011;15662;49.128;8.520;2022-07-30T00:39:19;1.80;;;1.70;;
28427;SDS011;15662;49.128;8.520;2022-07-30T00:41:58;1.60;;;1.50;;
28427;SDS011;15662;49.128;8.520;2022-07-30T00:44:29;1.90;;;1.80;;
28427;SDS011;15662;49.128;8.520;2022-07-30T00:46:58;1.65;;;1.55;;
28427;SDS011;15662;49.128;8.520;2022-07-30T00:49:26;1.80;;;1.70;;
28427;SDS011;15662;49.128;8.520;2022-07-30T00:51:54;1.60;;;1.50;;
28427;SDS011;15662;49.128;8.520;2022-07-30T00:54:22;1.95;;;1.70;;
28427;SDS011;15662;49.128;8.520;2022-07-30T00:56:50;1.75;;;1.65;;
28427;SDS011;15662;49.128;8.520;2022-07-30T00:59:18;1.92;;;1.83;;
28427;SDS011;15662;49.128;8.520;2022-07-30T01:01:46;1.60;;;1.50;;
28427;SDS011;15662;49.128;8.520;2022-07-30T01:04:14;1.92;;;1.83;;
28427;SDS011;15662;49.128;8.520;2022-07-30T01:06:42;1.80;;;1.70;;
28427;SDS011;15662;49.128;8.520;2022-07-30T01:09:10;1.80;;;1.70;;
28427;SDS011;15662;49.128;8.520;2022-07-30T01:11:38;1.88;;;1.65;;
28427;SDS011;15662;49.128;8.520;2022-07-30T01:14:08;1.98;;;1.88;;
28427;SDS011;15662;49.128;8.520;2022-07-30T01:16:37;2.05;;;1.83;;
28427;SDS011;15662;49.128;8.520;2022-07-30T01:19:11;2.00;;;1.90;;
28427;SDS011;15662;49.128;8.520;2022-07-30T01:27:55;4.35;;;1.77;;
28427;SDS011;15662;49.128;8.520;2022-07-30T01:30:39;2.10;;;1.90;;
28427;SDS011;15662;49.128;8.520;2022-07-30T01:33:11;3.05;;;1.65;;
28427;SDS011;15662;49.128;8.520;2022-07-30T01:35:44;2.13;;;1.88;;
28427;SDS011;15662;49.128;8.520;2022-07-30T01:38:15;3.88;;;2.00;;
28427;SDS011;15662;49.128;8.520;2022-07-30T01:40:48;1.90;;;1.80;;
28427;SDS011;15662;49.128;8.520;2022-07-30T01:43:19;1.80;;;1.70;;
28427;SDS011;15662;49.128;8.520;2022-07-30T01:48:20;1.70;;;1.60;;
28427;SDS011;15662;49.128;8.520;2022-07-30T01:50:51;2.10;;;1.90;;
28427;SDS011;15662;49.128;8.520;2022-07-30T01:55:53;2.20;;;2.00;;
28427;SDS011;15662;49.128;8.520;2022-07-30T01:58:23;2.17;;;1.98;;
28427;SDS011;15662;49.128;8.520;2022-07-30T02:01:02;2.10;;;2.00;;
28427;SDS011;15662;49.128;8.520;2022-07-30T02:03:31;3.17;;;1.90;;
28427;SDS011;15662;49.128;8.520;2022-07-30T02:06:06;2.53;;;2.20;;
28427;SDS011;15662;49.128;8.520;2022-07-30T02:08:45;1.88;;;1.70;;
28427;SDS011;15662;49.128;8.520;2022-07-30T02:11:24;2.17;;;2.08;;
28427;SDS011;15662;49.128;8.520;2022-07-30T02:14:23;2.10;;;2.00;;
28427;SDS011;15662;49.128;8.520;2022-07-30T02:16:57;3.40;;;2.10;;
28427;SDS011;15662;49.128;8.520;2022-07-30T02:22:07;2.58;;;2.22;;
28427;SDS011;15662;49.128;8.520;2022-07-30T02:24:41;2.30;;;2.10;;
28427;SDS011;15662;49.128;8.520;2022-07-30T02:27:14;3.08;;;2.17;;
28427;SDS011;15662;49.128;8.520;2022-07-30T02:29:48;2.28;;;2.15;;
28427;SDS011;15662;49.128;8.520;2022-07-30T02:32:19;2.40;;;2.30;;
28427;SDS011;15662;49.128;8.520;2022-07-30T02:34:55;2.22;;;2.10;;
28427;SDS011;15662;49.128;8.520;2022-07-30T02:37:28;2.28;;;2.10;;
28427;SDS011;15662;49.128;8.520;2022-07-30T02:40:14;3.33;;;2.00;;
28427;SDS011;15662;49.128;8.520;2022-07-30T02:42:46;2.88;;;2.33;;
28427;SDS011;15662;49.128;8.520;2022-07-30T02:45:21;2.17;;;2.08;;
28427;SDS011;15662;49.128;8.520;2022-07-30T02:50:27;2.30;;;2.10;;
28427;SDS011;15662;49.128;8.520;2022-07-30T02:52:57;2.25;;;1.98;;
28427;SDS011;15662;49.128;8.520;2022-07-30T02:58:00;3.03;;;2.08;;
28427;SDS011;15662;49.128;8.520;2022-07-30T03:00:30;3.60;;;2.47;;
28427;SDS011;15662;49.128;8.520;2022-07-30T03:03:00;2.60;;;2.40;;
28427;SDS011;15662;49.128;8.520;2022-07-30T03:05:31;3.95;;;2.53;;
28427;SDS011;15662;49.128;8.520;2022-07-30T03:08:00;2.40;;;2.20;;
28427;SDS011;15662;49.128;8.520;2022-07-30T03:10:31;2.42;;;2.22;;
28427;SDS011;15662;49.128;8.520;2022-07-30T03:13:01;2.85;;;2.38;;
28427;SDS011;15662;49.128;8.520;2022-07-30T03:15:33;2.35;;;2.15;;
28427;SDS011;15662;49.128;8.520;2022-07-30T03:18:06;2.72;;;2.30;;
28427;SDS011;15662;49.128;8.520;2022-07-30T03:20:38;3.28;;;2.40;;
28427;SDS011;15662;49.128;8.520;2022-07-30T03:23:07;3.08;;;2.38;;
28427;SDS011;15662;49.128;8.520;2022-07-30T03:25:38;2.80;;;2.50;;
28427;SDS011;15662;49.128;8.520;2022-07-30T03:28:08;2.42;;;2.22;;
28427;SDS011;15662;49.128;8.520;2022-07-30T03:30:37;3.45;;;2.63;;
28427;SDS011;15662;49.128;8.520;2022-07-30T03:33:06;3.38;;;2.50;;
28427;SDS011;15662;49.128;8.520;2022-07-30T03:35:35;3.75;;;2.65;;
28427;SDS011;15662;49.128;8.520;2022-07-30T03:38:05;2.47;;;2.28;;
28427;SDS011;15662;49.128;8.520;2022-07-30T03:40:33;4.13;;;2.65;;
28427;SDS011;15662;49.128;8.520;2022-07-30T03:43:02;2.80;;;2.60;;
28427;SDS011;15662;49.128;8.520;2022-07-30T03:45:45;2.97;;;2.47;;
28427;SDS011;15662;49.128;8.520;2022-07-30T03:48:15;2.58;;;2.38;;
28427;SDS011;15662;49.128;8.520;2022-07-30T03:50:46;2.90;;;2.65;;
28427;SDS011;15662;49.128;8.520;2022-07-30T03:53:14;2.90;;;2.70;;
28427;SDS011;15662;49.128;8.520;2022-07-30T03:58:52;5.93;;;2.60;;
28427;SDS011;15662;49.128;8.520;2022-07-30T04:01:24;3.00;;;2.80;;
28427;SDS011;15662;49.128;8.520;2022-07-30T04:04:04;3.15;;;2.85;;
28427;SDS011;15662;49.128;8.520;2022-07-30T04:06:39;4.43;;;3.00;;
28427;SDS011;15662;49.128;8.520;2022-07-30T04:09:11;7.60;;;2.75;;
28427;SDS011;15662;49.128;8.520;2022-07-30T04:11:39;2.80;;;2.60;;
28427;SDS011;15662;49.128;8.520;2022-07-30T04:14:13;3.30;;;2.75;;
28427;SDS011;15662;49.128;8.520;2022-07-30T04:16:45;4.05;;;2.97;;
28427;SDS011;15662;49.128;8.520;2022-07-30T04:19:24;3.17;;;2.72;;
28427;SDS011;15662;49.128;8.520;2022-07-30T04:22:02;2.72;;;2.53;;
28427;SDS011;15662;49.128;8.520;2022-07-30T04:24:33;3.92;;;3.10;;
28427;SDS011;15662;49.128;8.520;2022-07-30T04:27:04;3.00;;;2.80;;
28427;SDS011;15662;49.128;8.520;2022-07-30T04:29:32;3.08;;;2.88;;
28427;SDS011;15662;49.128;8.520;2022-07-30T04:32:01;3.15;;;2.67;;
28427;SDS011;15662;49.128;8.520;2022-07-30T04:34:32;4.07;;;3.08;;
28427;SDS011;15662;49.128;8.520;2022-07-30T04:37:03;4.25;;;3.00;;
28427;SDS011;15662;49.128;8.520;2022-07-30T04:39:31;3.88;;;2.90;;
28427;SDS011;15662;49.128;8.520;2022-07-30T04:41:59;4.68;;;2.70;;
28427;SDS011;15662;49.128;8.520;2022-07-30T04:44:34;7.80;;;2.90;;
28427;SDS011;15662;49.128;8.520;2022-07-30T04:47:22;4.68;;;3.03;;
28427;SDS011;15662;49.128;8.520;2022-07-30T04:50:20;5.20;;;3.28;;
28427;SDS011;15662;49.128;8.520;2022-07-30T04:52:56;4.65;;;2.90;;
28427;SDS011;15662;49.128;8.520;2022-07-30T04:55:30;3.00;;;2.80;;
28427;SDS011;15662;49.128;8.520;2022-07-30T04:58:20;4.43;;;2.95;;
28427;SDS011;15662;49.128;8.520;2022-07-30T05:01:12;4.35;;;2.90;;
28427;SDS011;15662;49.128;8.520;2022-07-30T05:03:48;3.00;;;2.80;;
28427;SDS011;15662;49.128;8.520;2022-07-30T05:06:19;3.72;;;3.10;;
28427;SDS011;15662;49.128;8.520;2022-07-30T05:08:50;2.80;;;2.58;;
28427;SDS011;15662;49.128;8.520;2022-07-30T05:11:20;3.20;;;2.95;;
28427;SDS011;15662;49.128;8.520;2022-07-30T05:13:48;4.28;;;2.88;;
28427;SDS011;15662;49.128;8.520;2022-07-30T05:16:20;3.28;;;2.97;;
28427;SDS011;15662;49.128;8.520;2022-07-30T05:18:49;3.60;;;2.85;;
28427;SDS011;15662;49.128;8.520;2022-07-30T05:21:17;3.60;;;2.78;;
28427;SDS011;15662;49.128;8.520;2022-07-30T05:23:47;3.90;;;2.50;;
28427;SDS011;15662;49.128;8.520;2022-07-30T05:26:22;3.35;;;2.60;;
28427;SDS011;15662;49.128;8.520;2022-07-30T05:28:55;3.88;;;2.90;;
28427;SDS011;15662;49.128;8.520;2022-07-30T05:31:30;3.17;;;2.75;;
28427;SDS011;15662;49.128;8.520;2022-07-30T05:34:01;3.17;;;2.95;;
28427;SDS011;15662;49.128;8.520;2022-07-30T05:36:39;4.32;;;2.90;;
28427;SDS011;15662;49.128;8.520;2022-07-30T05:39:10;2.92;;;2.67;;
28427;SDS011;15662;49.128;8.520;2022-07-30T05:42:01;3.05;;;2.30;;
28427;SDS011;15662;49.128;8.520;2022-07-30T05:44:39;2.72;;;2.53;;
28427;SDS011;15662;49.128;8.520;2022-07-30T05:47:07;2.95;;;2.50;;
28427;SDS011;15662;49.128;8.520;2022-07-30T05:49:37;2.70;;;2.50;;
28427;SDS011;15662;49.128;8.520;2022-07-30T05:52:08;2.95;;;2.28;;
28427;SDS011;15662;49.128;8.520;2022-07-30T05:54:36;4.85;;;2.50;;
28427;SDS011;15662;49.128;8.520;2022-07-30T05:57:27;3.33;;;2.40;;
28427;SDS011;15662;49.128;8.520;2022-07-30T05:59:56;2.80;;;2.60;;
28427;SDS011;15662;49.128;8.520;2022-07-30T06:02:42;3.00;;;2.70;;
28427;SDS011;15662;49.128;8.520;2022-07-30T06:05:13;3.85;;;2.53;;
28427;SDS011;15662;49.128;8.520;2022-07-30T06:07:42;2.78;;;2.50;;
28427;SDS011;15662;49.128;8.520;2022-07-30T06:10:10;2.55;;;2.35;;
28427;SDS011;15662;49.128;8.520;2022-07-30T06:12:38;3.08;;;2.63;;
28427;SDS011;15662;49.128;8.520;2022-07-30T06:15:08;3.08;;;2.38;;
28427;SDS011;15662;49.128;8.520;2022-07-30T06:17:44;2.42;;;2.22;;
28427;SDS011;15662;49.128;8.520;2022-07-30T06:20:38;3.67;;;2.40;;
28427;SDS011;15662;49.128;8.520;2022-07-30T06:23:22;2.60;;;2.50;;
28427;SDS011;15662;49.128;8.520;2022-07-30T06:26:02;2.58;;;2.35;;
28427;SDS011;15662;49.128;8.520;2022-07-30T06:28:30;2.80;;;2.30;;
28427;SDS011;15662;49.128;8.520;2022-07-30T06:31:32;2.33;;;2.22;;
28427;SDS011;15662;49.128;8.520;2022-07-30T06:34:00;2.65;;;2.45;;
28427;SDS011;15662;49.128;8.520;2022-07-30T06:36:33;3.00;;;2.60;;
28427;SDS011;15662;49.128;8.520;2022-07-30T06:39:05;3.60;;;2.92;;
28427;SDS011;15662;49.128;8.520;2022-07-30T06:41:56;2.60;;;2.27;;
28427;SDS011;15662;49.128;8.520;2022-07-30T06:44:41;3.45;;;2.30;;
28427;SDS011;15662;49.128;8.520;2022-07-30T06:47:09;2.67;;;2.28;;
28427;SDS011;15662;49.128;8.520;2022-07-30T06:49:38;4.72;;;2.17;;
28427;SDS011;15662;49.128;8.520;2022-07-30T06:52:08;2.40;;;2.20;;
28427;SDS011;15662;49.128;8.520;2022-07-30T06:54:45;7.82;;;2.30;;
28427;SDS011;15662;49.128;8.520;2022-07-30T06:57:21;2.22;;;2.03;;
28427;SDS011;15662;49.128;8.520;2022-07-30T06:59:50;5.75;;;2.50;;
28427;SDS011;15662;49.128;8.520;2022-07-30T07:02:44;2.45;;;2.25;;
28427;SDS011;15662;49.128;8.520;2022-07-30T07:05:13;3.38;;;2.20;;
28427;SDS011;15662;49.128;8.520;2022-07-30T07:07:46;2.45;;;2.25;;
28427;SDS011;15662;49.128;8.520;2022-07-30T07:10:27;2.58;;;2.30;;
28427;SDS011;15662;49.128;8.520;2022-07-30T07:13:25;2.42;;;2.20;;
28427;SDS011;15662;49.128;8.520;2022-07-30T07:15:52;5.07;;;2.33;;
28427;SDS011;15662;49.128;8.520;2022-07-30T07:18:22;3.50;;;2.30;;
28427;SDS011;15662;49.128;8.520;2022-07-30T07:21:03;2.58;;;2.28;;
28427;SDS011;15662;49.128;8.520;2022-07-30T07:23:34;2.58;;;2.20;;
28427;SDS011;15662;49.128;8.520;2022-07-30T07:26:18;2.45;;;2.25;;
28427;SDS011;15662;49.128;8.520;2022-07-30T07:28:46;2.45;;;2.20;;
28427;SDS011;15662;49.128;8.520;2022-07-30T07:31:14;6.53;;;2.60;;
28427;SDS011;15662;49.128;8.520;2022-07-30T07:34:02;3.25;;;2.28;;
28427;SDS011;15662;49.128;8.520;2022-07-30T07:36:30;5.07;;;2.40;;
28427;SDS011;15662;49.128;8.520;2022-07-30T07:38:58;2.45;;;2.08;;
28427;SDS011;15662;49.128;8.520;2022-07-30T07:41:26;2.78;;;2.45;;
28427;SDS011;15662;49.128;8.520;2022-07-30T07:43:53;2.70;;;2.53;;
28427;SDS011;15662;49.128;8.520;2022-07-30T07:46:30;4.47;;;2.20;;
28427;SDS011;15662;49.128;8.520;2022-07-30T07:49:01;3.60;;;2.60;;
28427;SDS011;15662;49.128;8.520;2022-07-30T07:51:36;2.60;;;2.40;;
28427;SDS011;15662;49.128;8.520;2022-07-30T07:54:15;4.15;;;2.42;;
28427;SDS011;15662;49.128;8.520;2022-07-30T07:56:49;3.05;;;2.20;;
28427;SDS011;15662;49.128;8.520;2022-07-30T07:59:49;3.70;;;2.00;;
28427;SDS011;15662;49.128;8.520;2022-07-30T08:02:25;2.50;;;2.30;;
28427;SDS011;15662;49.128;8.520;2022-07-30T08:05:04;2.60;;;2.13;;
28427;SDS011;15662;49.128;8.520;2022-07-30T08:07:43;3.15;;;2.28;;
28427;SDS011;15662;49.128;8.520;2022-07-30T08:10:14;7.40;;;2.53;;
28427;SDS011;15662;49.128;8.520;2022-07-30T08:13:08;3.47;;;2.40;;
28427;SDS011;15662;49.128;8.520;2022-07-30T08:16:14;3.17;;;2.25;;
28427;SDS011;15662;49.128;8.520;2022-07-30T08:18:54;2.20;;;2.00;;
28427;SDS011;15662;49.128;8.520;2022-07-30T08:21:30;3.13;;;2.00;;
28427;SDS011;15662;49.128;8.520;2022-07-30T08:23:58;2.10;;;1.90;;
28427;SDS011;15662;49.128;8.520;2022-07-30T08:26:26;2.20;;;1.98;;
28427;SDS011;15662;49.128;8.520;2022-07-30T08:28:54;2.47;;;2.00;;
28427;SDS011;15662;49.128;8.520;2022-07-30T08:31:23;4.18;;;2.17;;
28427;SDS011;15662;49.128;8.520;2022-07-30T08:33:51;2.17;;;2.03;;
28427;SDS011;15662;49.128;8.520;2022-07-30T08:36:18;2.55;;;1.70;;
28427;SDS011;15662;49.128;8.520;2022-07-30T08:38:52;5.43;;;1.88;;
28427;SDS011;15662;49.128;8.520;2022-07-30T08:41:20;2.05;;;1.95;;
28427;SDS011;15662;49.128;8.520;2022-07-30T08:43:49;2.70;;;1.80;;
28427;SDS011;15662;49.128;8.520;2022-07-30T08:46:20;2.65;;;1.83;;
28427;SDS011;15662;49.128;8.520;2022-07-30T08:48:57;2.88;;;1.80;;
28427;SDS011;15662;49.128;8.520;2022-07-30T08:51:37;2.33;;;1.80;;
28427;SDS011;15662;49.128;8.520;2022-07-30T08:54:26;2.13;;;1.42;;
28427;SDS011;15662;49.128;8.520;2022-07-30T08:56:55;1.60;;;1.50;;
28427;SDS011;15662;49.128;8.520;2022-07-30T08:59:27;1.67;;;1.50;;
28427;SDS011;15662;49.128;8.520;2022-07-30T09:02:15;1.52;;;1.38;;
28427;SDS011;15662;49.128;8.520;2022-07-30T09:05:04;2.45;;;1.38;;
28427;SDS011;15662;49.128;8.520;2022-07-30T09:07:34;4.28;;;1.50;;
28427;SDS011;15662;49.128;8.520;2022-07-30T09:10:04;7.78;;;1.42;;
28427;SDS011;15662;49.128;8.520;2022-07-30T09:12:36;5.35;;;1.42;;
28427;SDS011;15662;49.128;8.520;2022-07-30T09:15:16;3.33;;;1.40;;
28427;SDS011;15662;49.128;8.520;2022-07-30T09:17:50;2.00;;;1.40;;
28427;SDS011;15662;49.128;8.520;2022-07-30T09:20:25;1.55;;;1.25;;
28427;SDS011;15662;49.128;8.520;2022-07-30T09:22:57;1.95;;;1.35;;
28427;SDS011;15662;49.128;8.520;2022-07-30T09:28:32;1.33;;;1.08;;
28427;SDS011;15662;49.128;8.520;2022-07-30T09:31:12;1.20;;;1.20;;
28427;SDS011;15662;49.128;8.520;2022-07-30T09:34:05;1.40;;;1.30;;
28427;SDS011;15662;49.128;8.520;2022-07-30T09:37:17;1.38;;;1.27;;
28427;SDS011;15662;49.128;8.520;2022-07-30T09:40:20;2.67;;;1.10;;
28427;SDS011;15662;49.128;8.520;2022-07-30T09:43:30;3.72;;;1.70;;
28427;SDS011;15662;49.128;8.520;2022-07-30T09:46:11;1.40;;;1.23;;
28427;SDS011;15662;49.128;8.520;2022-07-30T09:48:40;1.88;;;1.33;;
28427;SDS011;15662;49.128;8.520;2022-07-30T09:51:09;1.40;;;1.30;;
28427;SDS011;15662;49.128;8.520;2022-07-30T09:53:52;1.50;;;1.40;;
28427;SDS011;15662;49.128;8.520;2022-07-30T09:56:28;1.55;;;1.20;;
28427;SDS011;15662;49.128;8.520;2022-07-30T09:58:58;5.93;;;1.30;;
28427;SDS011;15662;49.128;8.520;2022-07-30T10:01:26;2.28;;;1.13;;
28427;SDS011;15662;49.128;8.520;2022-07-30T10:04:33;1.42;;;1.35;;
28427;SDS011;15662;49.128;8.520;2022-07-30T10:07:20;4.45;;;1.33;;
28427;SDS011;15662;49.128;8.520;2022-07-30T10:09:56;1.42;;;1.30;;
28427;SDS011;15662;49.128;8.520;2022-07-30T10:12:27;1.88;;;1.27;;
28427;SDS011;15662;49.128;8.520;2022-07-30T10:14:57;1.67;;;1.25;;
28427;SDS011;15662;49.128;8.520;2022-07-30T10:17:32;2.95;;;1.33;;
28427;SDS011;15662;49.128;8.520;2022-07-30T10:20:15;6.07;;;1.63;;
28427;SDS011;15662;49.128;8.520;2022-07-30T10:23:05;1.95;;;1.23;;
28427;SDS011;15662;49.128;8.520;2022-07-30T10:25:36;2.03;;;1.30;;
28427;SDS011;15662;49.128;8.520;2022-07-30T10:28:39;1.25;;;1.25;;
28427;SDS011;15662;49.128;8.520;2022-07-30T10:31:09;1.58;;;1.27;;
28427;SDS011;15662;49.128;8.520;2022-07-30T10:33:57;1.60;;;1.50;;
28427;SDS011;15662;49.128;8.520;2022-07-30T10:36:26;2.95;;;1.45;;
28427;SDS011;15662;49.128;8.520;2022-07-30T10:38:55;1.50;;;1.40;;
28427;SDS011;15662;49.128;8.520;2022-07-30T10:44:24;2.25;;;1.35;;
28427;SDS011;15662;49.128;8.520;2022-07-30T10:47:07;2.53;;;1.30;;
28427;SDS011;15662;49.128;8.520;2022-07-30T10:49:40;1.23;;;1.13;;
28427;SDS011;15662;49.128;8.520;2022-07-30T10:52:09;1.40;;;1.20;;
28427;SDS011;15662;49.128;8.520;2022-07-30T10:54:42;1.45;;;1.30;;
28427;SDS011;15662;49.128;8.520;2022-07-30T10:57:31;2.60;;;1.60;;
28427;SDS011;15662;49.128;8.520;2022-07-30T11:00:10;1.20;;;1.20;;
28427;SDS011;15662;49.128;8.520;2022-07-30T11:08:42;3.80;;;1.40;;
28427;SDS011;15662;49.128;8.520;2022-07-30T11:14:08;1.75;;;1.50;;
28427;SDS011;15662;49.128;8.520;2022-07-30T11:19:09;1.20;;;1.10;;
28427;SDS011;15662;49.128;8.520;2022-07-30T11:27:50;1.10;;;1.10;;
28427;SDS011;15662;49.128;8.520;2022-07-30T11:32:51;1.73;;;1.20;;
28427;SDS011;15662;49.128;8.520;2022-07-30T11:35:29;1.92;;;1.15;;
28427;SDS011;15662;49.128;8.520;2022-07-30T11:38:13;1.35;;;1.20;;
28427;SDS011;15662;49.128;8.520;2022-07-30T11:46:16;2.20;;;1.10;;
28427;SDS011;15662;49.128;8.520;2022-07-30T11:51:31;1.20;;;1.10;;
28427;SDS011;15662;49.128;8.520;2022-07-30T11:54:08;2.17;;;1.10;;
28427;SDS011;15662;49.128;8.520;2022-07-30T11:56:50;0.77;;;0.77;;
28427;SDS011;15662;49.128;8.520;2022-07-30T11:59:19;1.25;;;0.95;;
28427;SDS011;15662;49.128;8.520;2022-07-30T12:01:48;0.98;;;0.90;;
28427;SDS011;15662;49.128;8.520;2022-07-30T12:04:26;2.72;;;1.05;;
28427;SDS011;15662;49.128;8.520;2022-07-30T12:06:54;0.80;;;0.80;;
28427;SDS011;15662;49.128;8.520;2022-07-30T12:09:25;2.50;;;1.25;;
28427;SDS011;15662;49.128;8.520;2022-07-30T12:11:55;2.72;;;1.10;;
28427;SDS011;15662;49.128;8.520;2022-07-30T12:14:23;2.97;;;0.95;;
28427;SDS011;15662;49.128;8.520;2022-07-30T12:16:52;0.93;;;0.93;;
28427;SDS011;15662;49.128;8.520;2022-07-30T12:19:20;0.95;;;0.90;;
28427;SDS011;15662;49.128;8.520;2022-07-30T12:21:49;1.02;;;0.88;;
28427;SDS011;15662;49.128;8.520;2022-07-30T12:24:23;1.00;;;1.00;;
28427;SDS011;15662;49.128;8.520;2022-07-30T12:27:02;1.00;;;1.00;;
28427;SDS011;15662;49.128;8.520;2022-07-30T12:29:33;1.33;;;1.00;;
28427;SDS011;15662;49.128;8.520;2022-07-30T12:32:02;1.05;;;0.90;;
28427;SDS011;15662;49.128;8.520;2022-07-30T12:34:30;1.60;;;1.30;;
28427;SDS011;15662;49.128;8.520;2022-07-30T12:37:08;0.73;;;0.65;;
28427;SDS011;15662;49.128;8.520;2022-07-30T12:39:36;0.80;;;0.80;;
28427;SDS011;15662;49.128;8.520;2022-07-30T12:42:06;0.98;;;0.98;;
28427;SDS011;15662;49.128;8.520;2022-07-30T12:44:45;0.93;;;0.90;;
28427;SDS011;15662;49.128;8.520;2022-07-30T12:47:19;1.10;;;1.00;;
28427;SDS011;15662;49.128;8.520;2022-07-30T12:49:53;1.75;;;0.90;;
28427;SDS011;15662;49.128;8.520;2022-07-30T13:00:47;0.80;;;0.80;;
28427;SDS011;15662;49.128;8.520;2022-07-30T13:03:25;5.47;;;1.00;;
28427;SDS011;15662;49.128;8.520;2022-07-30T13:11:35;0.80;;;0.80;;
28427;SDS011;15662;49.128;8.520;2022-07-30T13:14:15;1.52;;;0.90;;
28427;SDS011;15662;49.128;8.520;2022-07-30T13:16:43;0.70;;;0.70;;
28427;SDS011;15662;49.128;8.520;2022-07-30T13:19:11;1.73;;;0.82;;
28427;SDS011;15662;49.128;8.520;2022-07-30T13:21:40;0.93;;;0.90;;
28427;SDS011;15662;49.128;8.520;2022-07-30T13:24:16;3.30;;;0.73;;
28427;SDS011;15662;49.128;8.520;2022-07-30T13:26:45;0.70;;;0.70;;
28427;SDS011;15662;49.128;8.520;2022-07-30T13:29:16;0.95;;;0.90;;
28427;SDS011;15662;49.128;8.520;2022-07-30T13:31:44;0.85;;;0.80;;
28427;SDS011;15662;49.128;8.520;2022-07-30T13:34:12;0.80;;;0.80;;
28427;SDS011;15662;49.128;8.520;2022-07-30T13:36:40;1.25;;;0.70;;
28427;SDS011;15662;49.128;8.520;2022-07-30T13:39:08;1.90;;;0.90;;
28427;SDS011;15662;49.128;8.520;2022-07-30T13:41:38;1.17;;;0.85;;
28427;SDS011;15662;49.128;8.520;2022-07-30T13:44:08;2.33;;;0.93;;
28427;SDS011;15662;49.128;8.520;2022-07-30T13:46:36;2.25;;;0.80;;
28427;SDS011;15662;49.128;8.520;2022-07-30T13:49:07;0.90;;;0.90;;
28427;SDS011;15662;49.128;8.520;2022-07-30T13:51:36;1.40;;;1.13;;
28427;SDS011;15662;49.128;8.520;2022-07-30T13:54:04;0.82;;;0.80;;
28427;SDS011;15662;49.128;8.520;2022-07-30T13:56:33;0.88;;;0.70;;
28427;SDS011;15662;49.128;8.520;2022-07-30T13:59:07;0.68;;;0.68;;
28427;SDS011;15662;49.128;8.520;2022-07-30T14:01:35;1.02;;;0.85;;
28427;SDS011;15662;49.128;8.520;2022-07-30T14:04:04;0.80;;;0.80;;
28427;SDS011;15662;49.128;8.520;2022-07-30T14:06:32;0.90;;;0.90;;
28427;SDS011;15662;49.128;8.520;2022-07-30T14:09:00;0.80;;;0.80;;
28427;SDS011;15662;49.128;8.520;2022-07-30T14:11:28;0.80;;;0.80;;
28427;SDS011;15662;49.128;8.520;2022-07-30T14:13:58;0.80;;;0.80;;
28427;SDS011;15662;49.128;8.520;2022-07-30T14:16:25;0.88;;;0.73;;
28427;SDS011;15662;49.128;8.520;2022-07-30T14:19:12;1.42;;;1.10;;
28427;SDS011;15662;49.128;8.520;2022-07-30T14:21:51;2.75;;;0.90;;
28427;SDS011;15662;49.128;8.520;2022-07-30T14:24:20;0.80;;;0.80;;
28427;SDS011;15662;49.128;8.520;2022-07-30T14:26:49;0.77;;;0.77;;
28427;SDS011;15662;49.128;8.520;2022-07-30T14:29:24;2.35;;;0.98;;
28427;SDS011;15662;49.128;8.520;2022-07-30T14:31:53;0.73;;;0.73;;
28427;SDS011;15662;49.128;8.520;2022-07-30T14:34:22;0.70;;;0.70;;
28427;SDS011;15662;49.128;8.520;2022-07-30T14:36:50;0.68;;;0.68;;
28427;SDS011;15662;49.128;8.520;2022-07-30T14:39:18;3.03;;;0.95;;
28427;SDS011;15662;49.128;8.520;2022-07-30T14:41:47;1.25;;;0.80;;
28427;SDS011;15662;49.128;8.520;2022-07-30T14:44:22;0.82;;;0.82;;
28427;SDS011;15662;49.128;8.520;2022-07-30T14:46:49;0.70;;;0.70;;
28427;SDS011;15662;49.128;8.520;2022-07-30T14:49:21;1.20;;;0.90;;
28427;SDS011;15662;49.128;8.520;2022-07-30T14:51:50;1.42;;;0.98;;
28427;SDS011;15662;49.128;8.520;2022-07-30T14:54:18;1.50;;;0.80;;
28427;SDS011;15662;49.128;8.520;2022-07-30T14:56:47;1.13;;;0.77;;
28427;SDS011;15662;49.128;8.520;2022-07-30T14:59:15;1.00;;;0.90;;
28427;SDS011;15662;49.128;8.520;2022-07-30T15:01:42;1.90;;;0.80;;
28427;SDS011;15662;49.128;8.520;2022-07-30T15:04:11;2.05;;;0.90;;
28427;SDS011;15662;49.128;8.520;2022-07-30T15:06:39;1.27;;;0.85;;
28427;SDS011;15662;49.128;8.520;2022-07-30T15:09:08;0.80;;;0.80;;
28427;SDS011;15662;49.128;8.520;2022-07-30T15:11:36;1.35;;;0.90;;
28427;SDS011;15662;49.128;8.520;2022-07-30T15:14:24;0.90;;;0.90;;
28427;SDS011;15662;49.128;8.520;2022-07-30T15:16:54;0.85;;;0.80;;
28427;SDS011;15662;49.128;8.520;2022-07-30T15:19:30;1.70;;;0.70;;
28427;SDS011;15662;49.128;8.520;2022-07-30T15:21:59;0.68;;;0.68;;
28427;SDS011;15662;49.128;8.520;2022-07-30T15:24:29;1.58;;;0.60;;
28427;SDS011;15662;49.128;8.520;2022-07-30T15:26:57;0.65;;;0.65;;
28427;SDS011;15662;49.128;8.520;2022-07-30T15:29:25;2.80;;;0.70;;
28427;SDS011;15662;49.128;8.520;2022-07-30T15:31:56;0.40;;;0.40;;
28427;SDS011;15662;49.128;8.520;2022-07-30T15:34:26;1.75;;;0.57;;
28427;SDS011;15662;49.128;8.520;2022-07-30T15:36:54;0.60;;;0.60;;
28427;SDS011;15662;49.128;8.520;2022-07-30T15:39:22;0.70;;;0.60;;
28427;SDS011;15662;49.128;8.520;2022-07-30T15:41:55;0.40;;;0.40;;
28427;SDS011;15662;49.128;8.520;2022-07-30T15:44:23;1.23;;;0.50;;
28427;SDS011;15662;49.128;8.520;2022-07-30T15:46:51;0.60;;;0.60;;
28427;SDS011;15662;49.128;8.520;2022-07-30T15:49:22;2.05;;;0.50;;
28427;SDS011;15662;49.128;8.520;2022-07-30T15:51:50;0.60;;;0.60;;
28427;SDS011;15662;49.128;8.520;2022-07-30T15:54:19;0.52;;;0.50;;
28427;SDS011;15662;49.128;8.520;2022-07-30T15:56:51;0.57;;;0.50;;
28427;SDS011;15662;49.128;8.520;2022-07-30T15:59:27;0.40;;;0.40;;
28427;SDS011;15662;49.128;8.520;2022-07-30T16:01:56;1.25;;;0.55;;
28427;SDS011;15662;49.128;8.520;2022-07-30T16:04:24;1.35;;;0.50;;
28427;SDS011;15662;49.128;8.520;2022-07-30T16:06:59;0.45;;;0.45;;
28427;SDS011;15662;49.128;8.520;2022-07-30T16:09:27;0.60;;;0.60;;
28427;SDS011;15662;49.128;8.520;2022-07-30T16:11:55;0.50;;;0.50;;
28427;SDS011;15662;49.128;8.520;2022-07-30T16:14:24;0.50;;;0.50;;
28427;SDS011;15662;49.128;8.520;2022-07-30T16:16:53;0.63;;;0.60;;
28427;SDS011;15662;49.128;8.520;2022-07-30T16:19:21;0.63;;;0.63;;
28427;SDS011;15662;49.128;8.520;2022-07-30T16:21:49;0.70;;;0.70;;
28427;SDS011;15662;49.128;8.520;2022-07-30T16:24:17;0.50;;;0.50;;
28427;SDS011;15662;49.128;8.520;2022-07-30T16:26:45;0.40;;;0.40;;
28427;SDS011;15662;49.128;8.520;2022-07-30T16:29:13;0.60;;;0.50;;
28427;SDS011;15662;49.128;8.520;2022-07-30T16:31:40;0.50;;;0.50;;
28427;SDS011;15662;49.128;8.520;2022-07-30T16:34:09;0.68;;;0.50;;
28427;SDS011;15662;49.128;8.520;2022-07-30T16:36:38;0.45;;;0.45;;